Time;durP1;ratioP1;P1;durP2;ratioP2;P2;SDS_P1;SDS_P2;PMS_P1;PMS_P2;Temp;Humidity;BMP_temperature;BMP_pressure;BME280_temperature;BME280_humidity;BME280_pressure;Samples;Min_cycle;Max_cycle;Signal;HPM_P1;HPM_P2
2022/04/05 00:00:09;;;;;;;16.38;11.50;;;;;;;9.14;72.01;101062.25;5096637;28;20028;-79
2022/04/05 00:02:56;;;;;;;17.83;11.35;;;;;;;9.69;68.53;101047.84;5096373;28;20028;-79
2022/04/05 00:05:42;;;;;;;17.00;11.52;;;;;;;9.22;71.24;101055.22;5097295;28;20038;-79
2022/04/05 00:08:27;;;;;;;17.08;11.80;;;;;;;8.93;75.02;101054.50;5095630;28;20020;-79
2022/04/05 00:11:13;;;;;;;15.32;11.23;;;;;;;9.29;72.09;101048.19;5095746;28;20046;-80
2022/04/05 00:14:00;;;;;;;17.58;12.00;;;;;;;9.41;72.69;101050.72;5095119;28;20101;-79
2022/04/05 00:16:46;;;;;;;16.48;11.05;;;;;;;9.22;71.79;101038.66;5097179;28;20406;-81
2022/04/05 00:19:31;;;;;;;15.02;11.00;;;;;;;9.16;73.44;101042.16;5095570;28;20123;-79
2022/04/05 00:22:17;;;;;;;17.45;11.10;;;;;;;9.06;73.49;101043.13;5096725;28;20380;-79
2022/04/05 00:25:03;;;;;;;15.98;11.02;;;;;;;9.35;71.44;101038.56;5081828;28;20024;-79
2022/04/05 00:27:49;;;;;;;17.65;11.25;;;;;;;9.33;71.39;101042.91;5081177;28;20052;-78
2022/04/05 00:30:35;;;;;;;17.02;10.93;;;;;;;9.40;72.37;101033.28;5095805;28;20170;-79
2022/04/05 00:33:21;;;;;;;15.77;10.95;;;;;;;9.18;72.71;101029.09;5096065;28;20020;-79
2022/04/05 00:36:07;;;;;;;16.75;10.93;;;;;;;9.06;73.66;101027.44;5081339;28;20101;-79
2022/04/05 00:38:52;;;;;;;16.50;11.45;;;;;;;8.88;75.26;101030.16;5095737;28;20368;-79
2022/04/05 00:41:38;;;;;;;18.05;11.52;;;;;;;8.77;75.49;101026.72;5081742;28;20057;-79
2022/04/05 00:44:24;;;;;;;18.73;11.32;;;;;;;8.65;76.79;101018.09;5095242;28;20049;-79
2022/04/05 00:47:18;;;;;;;16.20;11.18;;;;;;;9.01;75.14;101013.50;5095004;28;20066;-79
2022/04/05 00:50:05;;;;;;;17.42;10.57;;;;;;;8.95;74.89;101010.06;5079661;28;20019;-79
2022/04/05 00:52:51;;;;;;;18.17;11.27;;;;;;;9.01;75.19;101007.44;5096635;28;20120;-78
2022/04/05 00:55:39;;;;;;;14.57;10.93;;;;;;;8.96;75.60;101009.22;5094888;28;20457;-79
2022/04/05 00:58:26;;;;;;;16.92;10.75;;;;;;;8.72;77.63;101004.13;5095826;28;20028;-80
2022/04/05 01:01:18;;;;;;;15.90;11.10;;;;;;;8.60;78.11;101006.81;5079699;28;20074;-80
2022/04/05 01:04:04;;;;;;;17.27;10.98;;;;;;;8.72;78.33;101002.38;5094884;28;20028;-80
2022/04/05 01:06:51;;;;;;;17.38;12.15;;;;;;;8.68;79.63;101005.03;5095790;28;20042;-80
2022/04/05 01:09:38;;;;;;;17.63;11.25;;;;;;;8.58;80.11;101000.72;5080064;28;20016;-80
2022/04/05 01:12:23;;;;;;;16.33;11.88;;;;;;;8.69;80.84;101001.53;5094556;28;20112;-78
2022/04/05 01:15:09;;;;;;;17.30;11.32;;;;;;;8.57;80.89;100991.16;5094603;28;20031;-78
2022/04/05 01:17:55;;;;;;;18.50;11.63;;;;;;;8.82;81.14;100993.63;5093992;28;20463;-78
2022/04/05 01:20:41;;;;;;;18.73;12.25;;;;;;;8.79;82.61;100995.38;5099912;28;20028;-78
2022/04/05 01:23:27;;;;;;;21.80;12.38;;;;;;;8.17;87.57;100989.53;5102056;28;20028;-80
2022/04/05 01:26:12;;;;;;;20.08;12.55;;;;;;;8.36;87.72;100991.25;5094972;28;20027;-80
2022/04/05 01:28:58;;;;;;;17.65;12.00;;;;;;;8.58;84.01;100985.03;5081144;28;20384;-79
2022/04/05 01:31:46;;;;;;;21.52;12.45;;;;;;;8.67;86.18;100990.22;5094666;28;20043;-79
2022/04/05 01:34:34;;;;;;;17.70;12.10;;;;;;;8.53;85.75;100985.06;5094199;28;20071;-79
2022/04/05 01:37:20;;;;;;;18.08;12.50;;;;;;;8.77;86.42;100986.69;5095385;28;20035;-79
2022/04/05 01:40:06;;;;;;;19.30;12.60;;;;;;;8.78;84.87;100983.19;5079690;28;20032;-79
2022/04/05 01:42:52;;;;;;;18.75;12.63;;;;;;;8.57;86.25;100980.69;5094464;28;20042;-79
2022/04/05 01:45:38;;;;;;;18.63;13.10;;;;;;;8.36;89.57;100984.28;5079799;28;20034;-79
2022/04/05 01:48:24;;;;;;;19.45;12.57;;;;;;;8.39;90.54;100970.34;5079027;28;20451;-80
2022/04/05 01:51:09;;;;;;;19.95;13.00;;;;;;;8.47;90.53;100976.38;5094869;28;20035;-78
2022/04/05 01:53:58;;;;;;;17.35;12.75;;;;;;;8.56;89.87;100973.75;5094954;28;20344;-80
2022/04/05 01:56:47;;;;;;;16.52;12.27;;;;;;;8.29;89.31;100966.03;5094148;28;20020;-79
2022/04/05 01:59:35;;;;;;;18.98;12.60;;;;;;;8.34;91.79;100967.75;5079152;28;20028;-79
2022/04/05 02:02:21;;;;;;;19.75;12.52;;;;;;;8.22;90.49;100974.75;5093537;28;20024;-79
2022/04/05 02:05:07;;;;;;;18.60;12.75;;;;;;;8.39;89.89;100970.34;5079062;28;20035;-79
2022/04/05 02:07:53;;;;;;;17.08;12.48;;;;;;;8.39;91.39;100970.34;5094493;28;20107;-79
2022/04/05 02:10:39;;;;;;;18.30;12.63;;;;;;;8.42;92.00;100970.31;5094227;28;20024;-79
2022/04/05 02:13:24;;;;;;;17.70;12.95;;;;;;;8.28;92.35;100969.53;5093666;28;20044;-79
2022/04/05 02:16:10;;;;;;;20.40;13.00;;;;;;;8.44;91.71;100965.97;5093936;28;20099;-78
2022/04/05 02:18:56;;;;;;;18.77;13.80;;;;;;;8.17;95.21;100963.44;5078875;28;20176;-79
2022/04/05 02:21:42;;;;;;;18.02;12.75;;;;;;;7.93;93.79;100959.19;5094357;28;20039;-79
2022/04/05 02:24:28;;;;;;;20.42;13.02;;;;;;;8.15;92.60;100957.34;5093848;28;20028;-79
2022/04/05 02:27:13;;;;;;;16.77;12.07;;;;;;;8.25;94.42;100953.88;5093836;28;20016;-80
2022/04/05 02:29:59;;;;;;;16.52;12.02;;;;;;;8.09;95.00;100949.56;5094664;28;20032;-80
2022/04/05 02:32:45;;;;;;;19.77;13.40;;;;;;;7.76;97.20;100942.69;5093720;28;20064;-79
2022/04/05 02:35:31;;;;;;;18.40;12.00;;;;;;;8.05;96.97;100951.31;5094166;28;20446;-79
2022/04/05 02:38:17;;;;;;;18.17;12.55;;;;;;;8.14;94.19;100953.91;5094297;28;20020;-79
2022/04/05 02:41:05;;;;;;;19.80;13.05;;;;;;;7.99;95.20;100947.84;5093923;28;20039;-80
2022/04/05 02:43:51;;;;;;;21.13;13.15;;;;;;;7.79;97.29;100947.91;5093129;28;20412;-79
2022/04/05 02:46:36;;;;;;;18.52;12.63;;;;;;;7.68;95.63;100947.06;5093743;28;20024;-79
2022/04/05 02:49:22;;;;;;;18.90;12.95;;;;;;;7.65;96.90;100948.81;5094306;28;20342;-80
2022/04/05 02:52:08;;;;;;;21.08;12.57;;;;;;;7.54;97.25;100951.44;5094383;28;20173;-79
2022/04/05 02:54:54;;;;;;;18.52;13.13;;;;;;;7.60;97.58;100947.97;5093938;28;20024;-80
2022/04/05 02:57:41;;;;;;;16.70;12.80;;;;;;;7.71;97.89;100947.06;5078833;28;20085;-80
2022/04/05 03:00:27;;;;;;;20.00;12.77;;;;;;;7.37;100.00;100948.00;5078211;28;20027;-80
2022/04/05 03:03:13;;;;;;;19.75;12.93;;;;;;;7.30;100.00;100946.25;5092699;28;20452;-80
2022/04/05 03:05:59;;;;;;;18.98;12.98;;;;;;;6.95;100.00;100945.38;5079414;28;20097;-79
2022/04/05 03:08:46;;;;;;;18.70;13.38;;;;;;;6.74;100.00;100942.75;5093333;28;20471;-80
2022/04/05 03:11:31;;;;;;;21.48;13.32;;;;;;;6.32;100.00;100937.47;5095794;28;20040;-78
2022/04/05 03:14:17;;;;;;;19.02;12.52;;;;;;;6.85;100.00;100940.16;5097157;28;20058;-79
2022/04/05 03:17:03;;;;;;;18.45;12.25;;;;;;;6.70;100.00;100937.53;5098067;28;20074;-79
2022/04/05 03:19:49;;;;;;;18.52;13.07;;;;;;;6.86;100.00;100936.69;5096660;28;20032;-80
2022/04/05 03:22:35;;;;;;;18.70;13.15;;;;;;;7.06;100.00;100929.75;5082205;28;20039;-78
2022/04/05 03:25:22;;;;;;;27.95;16.88;;;;;;;7.11;100.00;100922.84;5096496;28;20028;-79
2022/04/05 03:28:08;;;;;;;74.03;34.20;;;;;;;7.06;100.00;100930.63;5097179;28;20024;-80
2022/04/05 03:30:54;;;;;;;25.27;15.20;;;;;;;7.06;100.00;100924.53;5081143;28;20093;-80
2022/04/05 03:33:40;;;;;;;23.70;15.35;;;;;;;7.22;100.00;100926.28;5097564;28;20035;-79
2022/04/05 03:36:26;;;;;;;30.45;17.17;;;;;;;7.10;100.00;100923.69;5097577;28;20428;-79
2022/04/05 03:39:13;;;;;;;32.60;18.20;;;;;;;6.84;100.00;100928.91;5096385;28;20044;-78
2022/04/05 03:41:59;;;;;;;21.98;14.82;;;;;;;6.76;100.00;100932.34;5097626;28;20444;-79
2022/04/05 03:44:45;;;;;;;21.50;13.45;;;;;;;6.58;100.00;100942.72;5097270;28;20028;-81
2022/04/05 03:47:31;;;;;;;23.33;14.38;;;;;;;6.52;100.00;100943.59;5101853;28;20360;-78
2022/04/05 03:50:18;;;;;;;24.42;14.10;;;;;;;6.30;100.00;100941.78;5102244;28;20035;-79
2022/04/05 03:53:04;;;;;;;20.92;14.43;;;;;;;6.37;100.00;100940.06;5097786;28;20028;-80
2022/04/05 03:55:49;;;;;;;23.70;14.02;;;;;;;6.26;100.00;100942.66;5080939;28;20024;-79
2022/04/05 03:58:35;;;;;;;21.90;14.40;;;;;;;6.55;100.00;100930.56;5096978;28;20039;-79
2022/04/05 04:01:21;;;;;;;21.50;14.07;;;;;;;6.30;100.00;100943.53;5097113;28;20367;-80
2022/04/05 04:04:08;;;;;;;23.40;15.40;;;;;;;6.53;100.00;100929.72;5081113;28;20036;-80
2022/04/05 04:06:53;;;;;;;24.58;14.57;;;;;;;6.59;100.00;100932.31;5097042;28;20035;-79
2022/04/05 04:09:40;;;;;;;22.85;15.07;;;;;;;6.63;100.00;100936.66;5082113;28;20104;-79
2022/04/05 04:12:26;;;;;;;23.63;15.00;;;;;;;6.30;100.00;100939.19;5095839;28;20133;-78
2022/04/05 04:15:12;;;;;;;24.40;15.27;;;;;;;6.39;100.00;100938.38;5096231;28;20054;-79
2022/04/05 04:17:57;;;;;;;24.75;15.80;;;;;;;6.55;100.00;100943.59;5082067;28;20032;-80
2022/04/05 04:20:43;;;;;;;26.55;16.50;;;;;;;6.70;100.00;100950.56;5096005;28;20372;-79
2022/04/05 04:23:29;;;;;;;22.83;15.57;;;;;;;6.47;100.00;100944.44;5095514;28;20107;-79
2022/04/05 04:26:15;;;;;;;22.80;15.48;;;;;;;6.53;100.00;100947.94;5096379;28;20019;-79
2022/04/05 04:29:04;;;;;;;27.30;15.77;;;;;;;6.59;100.00;100949.69;5096183;28;20499;-79
2022/04/05 04:31:49;;;;;;;30.23;15.88;;;;;;;6.54;100.00;100946.19;5096335;28;20075;-79
2022/04/05 04:34:35;;;;;;;24.05;14.63;;;;;;;6.51;100.00;100944.44;5095977;28;20038;-79
2022/04/05 04:37:21;;;;;;;22.83;15.13;;;;;;;6.49;100.00;100950.50;5096334;28;20461;-79
2022/04/05 04:40:07;;;;;;;33.05;22.58;;;;;;;6.72;100.00;100954.94;5096238;28;20028;-79
2022/04/05 04:42:53;;;;;;;25.50;15.15;;;;;;;6.74;100.00;100953.19;5095571;28;20028;-78
2022/04/05 04:45:39;;;;;;;29.27;15.18;;;;;;;6.70;100.00;100953.16;5095946;28;20106;-78
2022/04/05 04:48:25;;;;;;;29.70;16.23;;;;;;;7.03;100.00;100946.25;5095212;28;20338;-79
2022/04/05 04:51:12;;;;;;;24.40;15.00;;;;;;;6.87;100.00;100949.72;5095744;28;20031;-78
2022/04/05 04:53:57;;;;;;;20.80;14.40;;;;;;;6.75;100.00;100954.91;5080392;28;20027;-78
2022/04/05 04:56:43;;;;;;;21.73;15.18;;;;;;;6.95;100.00;100949.75;5079526;28;20024;-79
2022/04/05 04:59:29;;;;;;;22.73;15.25;;;;;;;6.97;100.00;100946.28;5080957;28;20032;-77
2022/04/05 05:02:15;;;;;;;28.33;19.15;;;;;;;7.06;100.00;100948.88;5094622;28;20035;-78
2022/04/05 05:05:01;;;;;;;31.17;17.45;;;;;;;7.04;100.00;100944.53;5095479;28;20032;-78
2022/04/05 05:07:48;;;;;;;22.05;14.98;;;;;;;7.09;100.00;100955.81;5095160;28;20024;-78
2022/04/05 05:10:33;;;;;;;23.63;15.48;;;;;;;7.19;100.00;100949.75;5094994;28;20509;-78
2022/04/05 05:13:20;;;;;;;26.75;15.98;;;;;;;7.03;100.00;100956.69;5093895;28;20402;-78
2022/04/05 05:16:06;;;;;;;22.95;16.27;;;;;;;7.35;100.00;100964.53;5079643;28;20020;-78
2022/04/05 05:18:52;;;;;;;27.88;16.52;;;;;;;7.27;100.00;100967.09;5080632;28;20388;-78
2022/04/05 05:21:39;;;;;;;24.17;15.85;;;;;;;7.09;100.00;100969.72;5095097;28;20048;-80
2022/04/05 05:24:24;;;;;;;23.05;15.65;;;;;;;7.21;100.00;100961.91;5094593;28;20479;-78
2022/04/05 05:27:10;;;;;;;24.73;15.27;;;;;;;7.33;100.00;100964.50;5094910;28;20090;-78
2022/04/05 05:29:56;;;;;;;28.80;15.98;;;;;;;7.49;100.00;100967.97;5094645;28;20356;-79
2022/04/05 05:32:47;;;;;;;26.17;15.25;;;;;;;7.64;100.00;100967.94;5094274;28;20034;-79
2022/04/05 05:35:33;;;;;;;27.33;15.48;;;;;;;7.45;100.00;100964.50;5094063;28;20448;-79
2022/04/05 05:38:19;;;;;;;25.25;16.55;;;;;;;7.58;100.00;100960.13;5080249;28;20106;-79
2022/04/05 05:41:05;;;;;;;28.05;16.48;;;;;;;7.65;100.00;100965.34;5079366;28;20035;-79
2022/04/05 05:43:50;;;;;;;24.92;15.98;;;;;;;7.67;100.00;100971.41;5093603;28;20055;-80
2022/04/05 05:46:36;;;;;;;42.92;28.13;;;;;;;7.91;100.00;100967.88;5080740;28;20027;-80
2022/04/05 05:49:22;;;;;;;23.27;14.60;;;;;;;8.00;100.00;100963.50;5080081;28;20028;-81
2022/04/05 05:52:08;;;;;;;22.38;14.43;;;;;;;7.96;100.00;100960.91;5094051;28;20027;-79
2022/04/05 05:54:53;;;;;;;24.10;14.63;;;;;;;8.13;100.00;100969.56;5082227;28;20099;-79
2022/04/05 05:58:07;;;;;;;20.85;14.45;;;;;;;8.21;100.00;100965.22;5095506;28;20476;-80
2022/04/05 06:00:53;;;;;;;25.45;16.08;;;;;;;7.93;100.00;100963.53;5094548;28;20098;-80
2022/04/05 06:04:02;;;;;;;23.52;15.77;;;;;;;8.30;100.00;100960.81;5094153;28;20036;-82
2022/04/05 06:06:48;;;;;;;21.55;15.05;;;;;;;8.56;100.00;100966.78;5094643;28;20116;-77
2022/04/05 06:09:33;;;;;;;25.23;15.65;;;;;;;8.32;100.00;100960.81;5094273;28;20050;-77
2022/04/05 06:12:19;;;;;;;22.10;14.55;;;;;;;8.36;100.00;100962.53;5093850;28;20044;-77
2022/04/05 06:15:10;;;;;;;28.52;16.13;;;;;;;8.30;100.00;100965.16;5099287;28;20028;-77
2022/04/05 06:17:58;;;;;;;24.92;15.45;;;;;;;8.49;100.00;100957.22;5096825;28;20039;-77
2022/04/05 06:20:43;;;;;;;25.85;15.23;;;;;;;8.71;100.00;100964.06;5093406;28;20055;-78
2022/04/05 06:23:29;;;;;;;19.85;13.75;;;;;;;8.81;100.00;100949.22;5093138;28;20043;-77
2022/04/05 06:26:15;;;;;;;22.67;14.55;;;;;;;9.28;98.97;100944.47;5078976;28;20372;-79
2022/04/05 06:29:00;;;;;;;23.20;15.80;;;;;;;9.28;97.36;100945.34;5093258;28;20020;-78
2022/04/05 06:31:46;;;;;;;26.33;16.08;;;;;;;10.00;92.45;100952.47;5077798;28;20035;-79
2022/04/05 06:34:32;;;;;;;22.38;14.93;;;;;;;9.80;93.78;100945.69;5077435;28;20115;-76
2022/04/05 06:37:18;;;;;;;24.92;15.43;;;;;;;10.35;89.78;100951.19;5078816;28;20027;-77
2022/04/05 06:40:05;;;;;;;25.17;15.88;;;;;;;10.29;90.64;100943.44;5093136;28;20020;-77
2022/04/05 06:42:51;;;;;;;26.58;17.23;;;;;;;10.27;90.17;100942.56;5092268;28;20024;-75
2022/04/05 06:45:37;;;;;;;27.35;17.38;;;;;;;10.54;89.13;100948.34;5092522;28;20020;-74
2022/04/05 06:48:23;;;;;;;23.98;16.67;;;;;;;10.44;89.46;100943.25;5096406;28;20016;-78
2022/04/05 06:51:09;;;;;;;26.67;16.02;;;;;;;10.43;88.30;100936.25;5082069;28;20058;-79
2022/04/05 06:53:56;;;;;;;21.52;15.55;;;;;;;10.53;90.70;100936.09;5096376;28;20032;-79
2022/04/05 06:56:42;;;;;;;24.00;16.10;;;;;;;10.88;87.73;100939.09;5081622;28;20089;-79
2022/04/05 06:59:28;;;;;;;26.23;17.20;;;;;;;10.80;87.86;100935.72;5096953;28;20055;-79
2022/04/05 07:02:14;;;;;;;25.90;17.70;;;;;;;10.94;87.52;100933.75;5097141;28;20332;-77
2022/04/05 07:05:00;;;;;;;27.40;18.42;;;;;;;10.92;88.17;100932.91;5081196;28;20020;-79
2022/04/05 07:07:46;;;;;;;28.60;17.88;;;;;;;10.92;88.61;100938.16;5080875;28;20117;-77
2022/04/05 07:10:32;;;;;;;27.77;16.95;;;;;;;11.10;88.91;100929.13;5081383;28;20031;-75
2022/04/05 07:13:18;;;;;;;24.90;17.98;;;;;;;11.21;89.97;100921.97;5081015;28;20044;-74
2022/04/05 07:16:04;;;;;;;27.42;17.70;;;;;;;11.36;87.96;100929.53;5096152;28;20035;-77
2022/04/05 07:18:50;;;;;;;44.10;30.98;;;;;;;11.60;87.28;100935.28;5081712;28;20035;-80
2022/04/05 07:21:36;;;;;;;23.85;17.77;;;;;;;11.63;87.66;100932.59;5081938;28;20047;-79
2022/04/05 07:24:21;;;;;;;22.38;16.20;;;;;;;11.52;88.60;100936.25;5096230;28;20081;-77
2022/04/05 07:27:07;;;;;;;24.60;16.73;;;;;;;11.52;89.58;100941.50;5095638;28;20020;-73
2022/04/05 07:29:53;;;;;;;19.60;14.80;;;;;;;11.56;88.91;100937.94;5096732;28;20456;-74
2022/04/05 07:32:41;;;;;;;19.70;14.20;;;;;;;11.68;86.78;100943.00;5095603;28;20039;-75
2022/04/05 07:35:26;;;;;;;21.25;14.35;;;;;;;11.83;85.57;100942.72;5095379;28;20028;-76
2022/04/05 07:38:12;;;;;;;21.15;14.48;;;;;;;12.47;79.16;100945.78;5096320;28;20035;-76
2022/04/05 07:40:58;;;;;;;22.48;14.65;;;;;;;12.34;77.55;100942.53;5095851;28;20024;-77
2022/04/05 07:43:44;;;;;;;19.52;14.43;;;;;;;12.82;75.20;100938.81;5081431;28;20035;-78
2022/04/05 07:46:30;;;;;;;20.73;14.63;;;;;;;12.62;76.90;100933.16;5096175;28;20052;-79
2022/04/05 07:49:16;;;;;;;19.92;13.90;;;;;;;13.14;72.89;100930.22;5095646;28;20020;-77
2022/04/05 07:52:02;;;;;;;17.08;13.18;;;;;;;12.99;71.34;100926.16;5094765;28;20028;-78
2022/04/05 07:54:47;;;;;;;21.02;13.90;;;;;;;13.38;70.97;100930.47;5096206;28;20177;-77
2022/04/05 07:57:36;;;;;;;28.80;21.33;;;;;;;13.78;68.98;100931.16;5096626;28;20430;-78
2022/04/05 08:00:23;;;;;;;25.08;18.85;;;;;;;13.70;64.86;100934.88;5095693;28;20337;-79
2022/04/05 08:03:09;;;;;;;15.57;11.15;;;;;;;13.80;61.29;100929.34;5095498;28;20016;-77
2022/04/05 08:05:55;;;;;;;16.67;12.07;;;;;;;14.13;61.38;100927.53;5096817;28;20024;-77
2022/04/05 08:08:40;;;;;;;20.40;12.23;;;;;;;14.19;61.59;100928.22;5095531;28;20153;-77
2022/04/05 08:11:26;;;;;;;14.98;10.85;;;;;;;14.46;58.30;100922.19;5095491;28;20460;-77
2022/04/05 08:14:12;;;;;;;12.57;9.85;;;;;;;14.54;54.67;100909.63;5081936;28;20044;-77
2022/04/05 08:16:58;;;;;;;14.20;10.75;;;;;;;14.34;55.57;100916.38;5095753;28;20490;-77
2022/04/05 08:19:44;;;;;;;14.55;10.63;;;;;;;15.04;54.26;100912.44;5079617;28;20082;-79
2022/04/05 08:22:30;;;;;;;13.15;9.68;;;;;;;15.10;52.42;100907.81;5096014;28;20069;-77
2022/04/05 08:25:17;;;;;;;13.02;10.18;;;;;;;14.95;53.57;100900.41;5096124;28;20532;-79
2022/04/05 08:28:04;;;;;;;13.18;9.63;;;;;;;15.20;52.29;100895.19;5094990;28;20407;-78
2022/04/05 08:30:50;;;;;;;16.73;9.10;;;;;;;15.29;50.00;100900.16;5094620;28;20452;-78
2022/04/05 08:33:36;;;;;;;12.90;9.63;;;;;;;14.65;51.80;100889.06;5081500;28;20035;-77
2022/04/05 08:36:22;;;;;;;12.40;9.10;;;;;;;15.89;48.78;100895.41;5100699;28;20020;-76
2022/04/05 08:39:07;;;;;;;19.15;12.90;;;;;;;16.14;46.59;100897.09;5103767;28;20053;-76
2022/04/05 08:41:55;;;;;;;11.20;8.40;;;;;;;16.78;45.51;100879.63;5092637;28;20028;-75
2022/04/05 08:44:45;;;;;;;11.82;8.60;;;;;;;16.82;44.79;100876.81;5091629;28;20039;-76
2022/04/05 08:47:33;;;;;;;14.23;10.38;;;;;;;16.95;43.77;100878.03;5091028;28;20534;-74
2022/04/05 08:50:22;;;;;;;11.38;7.80;;;;;;;16.92;43.47;100882.59;5086591;28;20471;-77
2022/04/05 08:53:07;;;;;;;10.57;7.78;;;;;;;16.36;43.13;100871.56;5086061;28;20582;-77
2022/04/05 08:55:53;;;;;;;9.45;7.32;;;;;;;16.99;42.41;100860.22;5085259;28;20047;-76
2022/04/05 08:58:39;;;;;;;10.93;7.30;;;;;;;17.15;40.43;100866.59;5088160;28;20036;-77
2022/04/05 09:01:29;;;;;;;10.52;6.68;;;;;;;16.93;39.77;100864.00;5085285;28;20027;-77
2022/04/05 09:04:15;;;;;;;8.48;6.03;;;;;;;16.95;39.45;100861.28;5087533;28;20475;-76
2022/04/05 09:07:19;;;;;;;10.02;6.95;;;;;;;16.87;40.71;100861.59;5082824;28;20024;-75
2022/04/05 09:10:15;;;;;;;8.60;6.47;;;;;;;16.71;41.06;100851.69;5089692;28;20032;-76
2022/04/05 09:13:01;;;;;;;7.75;6.00;;;;;;;16.61;40.32;100853.88;5076430;28;20043;-76
2022/04/05 09:15:56;;;;;;;6.78;5.90;;;;;;;16.89;39.11;100856.25;5089400;28;20027;-76
2022/04/05 09:18:45;;;;;;;9.93;6.20;;;;;;;17.37;38.66;100847.09;5088357;28;21023;-77
2022/04/05 09:21:51;;;;;;;8.48;6.07;;;;;;;16.54;39.22;100844.44;5086914;28;20089;-75
2022/04/05 09:24:39;;;;;;;8.10;6.18;;;;;;;17.00;38.93;100846.09;5070314;28;20040;-76
2022/04/05 09:27:26;;;;;;;7.38;6.10;;;;;;;16.47;39.46;100834.19;5080761;28;20024;-77
2022/04/05 09:30:31;;;;;;;9.95;5.90;;;;;;;16.51;39.78;100838.41;5072151;28;20463;-77
2022/04/05 09:33:17;;;;;;;9.30;6.07;;;;;;;16.67;39.29;100826.28;5086566;28;20039;-76
2022/04/05 09:36:14;;;;;;;8.70;6.03;;;;;;;16.93;37.96;100826.09;5081299;28;20046;-77
2022/04/05 09:39:19;;;;;;;7.93;5.57;;;;;;;17.01;37.70;100813.38;5087376;28;20024;-78
2022/04/05 09:42:10;;;;;;;7.10;5.47;;;;;;;16.57;38.69;100815.22;5086525;28;20512;-77
2022/04/05 09:44:56;;;;;;;7.15;5.60;;;;;;;16.78;37.76;100817.00;5085196;28;20036;-76
2022/04/05 09:47:41;;;;;;;7.47;5.68;;;;;;;16.73;37.58;100811.03;5084627;28;20123;-76
2022/04/05 09:50:27;;;;;;;10.70;6.20;;;;;;;17.15;37.21;100809.22;5085089;28;20024;-77
2022/04/05 09:53:13;;;;;;;9.77;5.70;;;;;;;16.45;38.56;100806.91;5071720;28;20476;-76
2022/04/05 09:56:11;;;;;;;8.20;5.88;;;;;;;16.40;39.07;100793.81;5081065;28;20069;-78
2022/04/05 09:59:06;;;;;;;8.57;5.90;;;;;;;16.39;40.12;100794.75;5083851;28;20028;-78
2022/04/05 10:01:56;;;;;;;8.05;5.22;;;;;;;16.48;39.18;100801.50;5084424;28;20116;-77
2022/04/05 10:04:59;;;;;;;6.50;5.18;;;;;;;16.39;39.17;100793.91;5086924;28;20505;-77
2022/04/05 10:07:46;;;;;;;7.38;5.95;;;;;;;16.24;39.74;100778.66;5083313;28;20079;-79
2022/04/05 10:10:33;;;;;;;8.65;5.95;;;;;;;16.27;39.62;100778.53;5085268;28;20024;-78
2022/04/05 10:13:19;;;;;;;7.47;5.78;;;;;;;16.41;38.86;100777.09;5069946;28;20048;-77
2022/04/05 10:16:06;;;;;;;8.93;6.00;;;;;;;16.41;39.65;100771.81;5066748;28;20426;-77
2022/04/05 10:19:09;;;;;;;8.77;6.15;;;;;;;17.28;39.85;100767.19;5087605;28;20040;-79
2022/04/05 10:21:57;;;;;;;9.20;6.35;;;;;;;16.51;39.64;100767.00;5092569;28;20024;-77
2022/04/05 10:24:44;;;;;;;8.70;6.47;;;;;;;17.10;39.97;100762.69;5091838;28;20142;-78
2022/04/05 10:27:30;;;;;;;8.07;6.30;;;;;;;16.98;39.61;100763.22;5088773;28;20031;-77
2022/04/05 10:30:21;;;;;;;8.40;6.50;;;;;;;17.15;39.83;100750.97;5093701;28;20063;-78
2022/04/05 10:33:21;;;;;;;7.30;5.97;;;;;;;16.91;39.46;100749.38;5091703;28;20028;-78
2022/04/05 10:36:08;;;;;;;7.50;5.82;;;;;;;16.68;39.29;100743.34;5088191;28;20032;-77
2022/04/05 10:39:13;;;;;;;8.77;6.30;;;;;;;17.03;39.80;100740.91;5090522;28;20054;-77
2022/04/05 10:42:08;;;;;;;10.93;6.00;;;;;;;17.07;38.96;100731.03;5092499;28;20024;-78
2022/04/05 10:45:08;;;;;;;8.60;6.00;;;;;;;17.14;39.07;100728.09;5078723;28;20045;-77
2022/04/05 10:48:17;;;;;;;11.43;5.55;;;;;;;17.26;37.63;100729.31;5072893;28;20028;-78
2022/04/05 10:51:05;;;;;;;7.05;4.70;;;;;;;17.21;36.34;100723.38;5093698;28;20111;-78
2022/04/05 10:57:35;;;;;;;7.25;5.22;;;;;;;17.71;37.65;100714.00;5086901;28;20339;-77
2022/04/05 11:00:28;;;;;;;7.55;6.35;;;;;;;16.94;37.84;100712.22;5078148;28;20066;-78
2022/04/05 11:03:14;;;;;;;5.85;4.80;;;;;;;17.54;37.60;100696.25;5097271;28;20031;-76
2022/04/05 11:06:03;;;;;;;6.43;4.45;;;;;;;17.93;36.37;100697.03;5090144;28;20032;-77
2022/04/05 11:08:51;;;;;;;11.23;4.35;;;;;;;17.69;36.25;100692.88;5094180;28;20028;-78
2022/04/05 11:11:38;;;;;;;4.38;3.97;;;;;;;18.21;35.67;100686.81;5092384;28;20043;-78
2022/04/05 11:14:43;;;;;;;4.63;3.85;;;;;;;17.96;35.68;100672.16;5078734;28;20044;-79
2022/04/05 11:17:29;;;;;;;9.27;4.40;;;;;;;17.74;35.47;100679.44;5088180;28;20031;-80
2022/04/05 11:20:14;;;;;;;4.93;3.95;;;;;;;17.62;35.97;100675.56;5077185;28;20515;-80
2022/04/05 11:23:02;;;;;;;6.97;3.97;;;;;;;17.80;35.15;100671.19;5090609;28;20112;-79
2022/04/05 11:25:48;;;;;;;5.90;4.03;;;;;;;17.98;34.79;100670.31;5075184;28;20042;-78
2022/04/05 11:28:45;;;;;;;6.00;3.90;;;;;;;18.59;34.29;100669.88;5091234;28;20028;-76
2022/04/05 11:31:40;;;;;;;6.93;4.18;;;;;;;17.71;35.22;100655.72;5089951;28;20460;-76
2022/04/05 11:34:34;;;;;;;7.32;3.65;;;;;;;18.73;35.11;100655.91;5074516;28;20028;-76
2022/04/05 11:37:34;;;;;;;4.32;3.33;;;;;;;18.18;34.52;100648.97;5071181;28;20107;-76
2022/04/05 11:40:19;;;;;;;4.30;3.42;;;;;;;18.78;34.60;100641.44;5089293;28;20419;-76
2022/04/05 11:43:06;;;;;;;7.50;3.58;;;;;;;18.59;34.01;100634.50;5073620;28;20536;-76
2022/04/05 11:45:54;;;;;;;4.85;4.00;;;;;;;19.21;33.72;100632.91;5087704;28;20027;-77
2022/04/05 11:48:52;;;;;;;6.47;3.67;;;;;;;18.87;33.31;100638.31;5074208;28;20482;-77
2022/04/05 11:51:44;;;;;;;8.20;3.47;;;;;;;18.91;33.07;100626.59;5089479;28;20036;-78
2022/04/05 11:54:30;;;;;;;4.70;3.92;;;;;;;18.70;33.32;100622.38;5089331;28;20042;-78
2022/04/05 11:57:15;;;;;;;5.90;3.40;;;;;;;18.62;33.05;100621.09;5085293;28;20092;-75
2022/04/05 12:00:07;;;;;;;5.25;3.25;;;;;;;19.21;32.81;100616.97;5087503;28;20027;-76
2022/04/05 12:03:06;;;;;;;8.75;3.53;;;;;;;18.90;32.09;100611.59;5086013;28;20028;-76
2022/04/05 12:05:53;;;;;;;3.88;3.20;;;;;;;18.93;32.25;100599.97;5071240;28;20040;-75
2022/04/05 12:08:39;;;;;;;5.53;3.20;;;;;;;18.99;32.43;100592.53;5087327;28;20511;-75
2022/04/05 12:11:27;;;;;;;5.95;3.65;;;;;;;18.73;32.30;100602.81;5089353;28;20038;-77
2022/04/05 12:14:20;;;;;;;4.28;3.13;;;;;;;19.19;31.59;100596.75;5088613;28;20048;-73
2022/04/05 12:17:06;;;;;;;4.95;3.80;;;;;;;18.52;32.00;100598.59;5068417;28;20028;-79
2022/04/05 12:19:53;;;;;;;5.45;3.70;;;;;;;18.97;31.58;100591.75;5088222;28;20080;-78
2022/04/05 12:22:39;;;;;;;4.75;3.65;;;;;;;19.01;31.57;100584.50;5073821;28;20032;-75
2022/04/05 12:25:26;;;;;;;6.00;3.30;;;;;;;18.92;31.77;100577.84;5086822;28;20032;-75
2022/04/05 12:28:11;;;;;;;5.20;3.30;;;;;;;19.06;31.90;100570.00;5085155;28;20051;-75
2022/04/05 12:31:27;;;;;;;10.88;4.38;;;;;;;18.93;32.84;100568.94;5088942;28;20020;-73
2022/04/05 12:34:14;;;;;;;5.97;4.13;;;;;;;18.68;33.15;100575.63;5087499;28;20035;-74
2022/04/05 12:37:02;;;;;;;6.65;3.92;;;;;;;18.63;32.82;100565.28;5082358;28;20067;-76
2022/04/05 12:39:54;;;;;;;6.53;3.85;;;;;;;18.68;32.78;100557.94;5087981;28;20032;-75
2022/04/05 12:42:41;;;;;;;5.85;3.92;;;;;;;18.92;32.37;100553.97;5086694;28;20786;-75
2022/04/05 12:45:30;;;;;;;5.38;3.90;;;;;;;18.42;32.96;100544.31;5086895;28;20051;-79
2022/04/05 12:48:21;;;;;;;6.45;4.18;;;;;;;18.24;33.16;100553.19;5072571;28;20028;-80
2022/04/05 12:51:07;;;;;;;5.82;4.50;;;;;;;18.52;33.50;100542.88;5088023;28;20035;-78
2022/04/05 12:53:53;;;;;;;6.43;4.07;;;;;;;18.65;33.03;100533.38;5085233;28;20110;-75